Terminal Aerodrome Forecast
Issued by NWS

Current Version | Previous Version | Text Only | Print | Product List | Glossary On
Versions: 1 2 3 4 5 6 7 8 9 10 11 12 13 14 15
852
FTUS43 KSGF 141120
TAFBBG
TAF
KBBG 141120Z 1412/1512 13010KT P6SM OVC025
     FM141700 14008KT P6SM OVC015
     FM150200 VRB03KT 4SM BR OVC007
     FM150700 VRB03KT 2SM BR OVC003=

USA.gov is the U.S. government's official web portal to all federal, state and local government web resources and services.